Kitchings Mill, South Carolina
Current Conditions -  °F | °C
As of 12:55 PM on Thursday 23 Oct 2014 (Local Time) from KAIK Reporting Station
Clear Clear  
Wind Chill: 19°   Ceiling: Unl
Heat Index: 19°   Visibility: 10mi
Dew Point:   Wind: 9mph
Humidity: 43%   Direction: 290°WNW
Pressure: 30.11"   Gusts: NA
Location:  33.5901°N, 81.3327°W
Report Text: KAIK 231655Z AUTO 29008KT 10SM CLR 19/06 A3011 RMK AO2 PNO
Loading
Personal Weather Stations






























Interactive Weather Map
Tropical Storm Tracking
New forecast layout! Learn more

10-Day Weather Forecast

Advertisements
Track Severe Weather on mobile